Santa Lucia, Brazil
Current Conditions -  °F | °C
As of 3:00 PM on Saturday 20 Dec 2014 (Local Time) from SBCA Reporting Station
Broken Clouds Broken Clouds  
Wind Chill: 86°   Ceiling: 2500
Heat Index: 90°   Visibility: 6mi
Dew Point: 70°   Wind: 23mph
Humidity: 58%   Direction: 30°NNE
Pressure: 29.8"   Gusts: NA
Location:  25.41°S, 53.57°W
Report Text: SBCA 201700Z 03020KT 9999 BKN025 30/21 Q1009
Loading
Personal Weather Stations






























Interactive Weather Map New forecast layout! Learn more

10-Day Weather Forecast

Advertisements
Track Severe Weather on mobile